Time;durP1;ratioP1;P1;durP2;ratioP2;P2;SDS_P1;SDS_P2;PMS_P1;PMS_P2;Temp;Humidity;BMP_temperature;BMP_pressure;BME280_temperature;BME280_humidity;BME280_pressure;Samples;Min_cycle;Max_cycle;Signal;HPM_P1;HPM_P2
2022/10/29 00:01:36;;;;;;;6.57;2.20;;;12.70;99.90;;;;;;4992022;28;20042;-73
2022/10/29 00:04:02;;;;;;;6.00;2.15;;;12.60;99.90;;;;;;4993048;28;20052;-74
2022/10/29 00:06:28;;;;;;;6.43;1.92;;;12.60;99.90;;;;;;4992607;28;20395;-74
2022/10/29 00:08:53;;;;;;;8.00;2.13;;;12.60;99.90;;;;;;5003494;28;20053;-74
2022/10/29 00:11:21;;;;;;;5.38;2.10;;;12.60;99.90;;;;;;5011543;28;20050;-74
2022/10/29 00:13:52;;;;;;;5.15;2.38;;;12.60;99.90;;;;;;5010285;28;20044;-74
2022/10/29 00:16:21;;;;;;;3.92;1.90;;;12.60;99.90;;;;;;4991403;28;20133;-74
2022/10/29 00:18:47;;;;;;;5.47;2.35;;;12.60;99.90;;;;;;4992765;28;20046;-74
2022/10/29 00:21:16;;;;;;;5.97;2.88;;;12.60;99.90;;;;;;4992657;28;20042;-73
2022/10/29 00:23:42;;;;;;;5.95;1.98;;;12.60;99.90;;;;;;4992552;28;20050;-73
2022/10/29 00:26:08;;;;;;;6.15;2.00;;;12.50;99.90;;;;;;4992680;28;20050;-74
2022/10/29 00:28:34;;;;;;;5.15;2.08;;;12.60;99.90;;;;;;4992258;28;20491;-74
2022/10/29 00:31:04;;;;;;;8.95;2.50;;;12.60;99.90;;;;;;4992477;28;20050;-74
2022/10/29 00:33:30;;;;;;;6.32;2.30;;;12.60;99.90;;;;;;4992578;28;20372;-74
2022/10/29 00:36:17;;;;;;;6.75;2.22;;;12.60;99.90;;;;;;4992164;28;20050;-73
2022/10/29 00:38:43;;;;;;;6.22;2.35;;;12.60;99.90;;;;;;4992365;28;20061;-73
2022/10/29 00:41:12;;;;;;;6.32;2.00;;;12.50;99.90;;;;;;4990427;28;20054;-73
2022/10/29 00:43:42;;;;;;;5.97;2.03;;;12.50;99.90;;;;;;4992310;28;20378;-74
2022/10/29 00:46:12;;;;;;;3.72;1.90;;;12.40;99.90;;;;;;4992181;28;20052;-75
2022/10/29 00:48:45;;;;;;;5.93;2.05;;;12.40;99.90;;;;;;4991784;28;20498;-75
2022/10/29 00:51:14;;;;;;;4.13;2.15;;;12.30;99.90;;;;;;4974654;28;20105;-74
2022/10/29 00:53:45;;;;;;;6.13;2.88;;;12.30;99.90;;;;;;4990557;28;20061;-73
2022/10/29 00:56:12;;;;;;;5.70;2.63;;;12.30;99.90;;;;;;4991855;28;20057;-73
2022/10/29 00:58:39;;;;;;;6.10;2.42;;;12.40;99.90;;;;;;4991912;28;20053;-74
2022/10/29 01:01:04;;;;;;;7.47;2.58;;;12.40;99.90;;;;;;4991928;28;20364;-74
2022/10/29 01:03:30;;;;;;;7.45;2.70;;;12.40;99.90;;;;;;4991834;28;20048;-74
2022/10/29 01:05:56;;;;;;;6.03;2.42;;;12.40;99.90;;;;;;4992199;28;20046;-74
2022/10/29 01:08:22;;;;;;;8.93;2.90;;;12.40;99.90;;;;;;5015082;28;20048;-74
2022/10/29 01:10:57;;;;;;;11.38;2.60;;;12.40;99.90;;;;;;5008882;28;20042;-73
2022/10/29 01:13:34;;;;;;;5.03;2.40;;;12.40;99.90;;;;;;5011463;28;20034;-73
2022/10/29 01:16:18;;;;;;;5.22;2.38;;;12.40;99.90;;;;;;4988791;28;20072;-74
2022/10/29 01:18:51;;;;;;;6.97;2.70;;;12.30;99.90;;;;;;5011680;28;20119;-74
2022/10/29 01:21:41;;;;;;;8.32;2.65;;;12.30;99.90;;;;;;5011546;28;20459;-74
2022/10/29 01:24:31;;;;;;;5.68;2.13;;;12.30;99.90;;;;;;5006615;28;20357;-74
2022/10/29 01:27:26;;;;;;;6.57;2.70;;;12.30;99.90;;;;;;4991761;28;20633;-74
2022/10/29 01:30:19;;;;;;;8.38;2.63;;;12.30;99.90;;;;;;4991866;28;20046;-74
2022/10/29 01:33:06;;;;;;;8.88;2.80;;;12.30;99.90;;;;;;4991877;28;20051;-74
2022/10/29 01:35:40;;;;;;;8.13;3.03;;;12.20;99.90;;;;;;4991956;28;20486;-74
2022/10/29 01:38:20;;;;;;;10.10;3.33;;;12.10;99.90;;;;;;5007246;28;20046;-74
2022/10/29 01:40:57;;;;;;;4.95;3.10;;;12.10;99.90;;;;;;5012452;28;20153;-74
2022/10/29 01:43:34;;;;;;;6.47;3.40;;;12.10;99.90;;;;;;5031059;28;20038;-74
2022/10/29 01:46:20;;;;;;;11.02;3.80;;;12.10;99.90;;;;;;5031121;28;20049;-74
2022/10/29 01:48:49;;;;;;;8.65;3.78;;;12.20;99.90;;;;;;5024002;28;20131;-74
2022/10/29 01:51:25;;;;;;;8.15;4.13;;;12.20;99.90;;;;;;4998147;28;20625;-74
2022/10/29 01:53:51;;;;;;;11.73;3.70;;;12.20;99.90;;;;;;5023131;28;20385;-74
2022/10/29 01:56:17;;;;;;;11.27;3.72;;;12.20;99.90;;;;;;5030070;28;20049;-75
2022/10/29 01:58:47;;;;;;;7.30;4.15;;;12.20;99.90;;;;;;5011223;28;20042;-74
2022/10/29 02:01:46;;;;;;;10.25;4.28;;;12.30;99.90;;;;;;5010959;28;20355;-74
2022/10/29 02:04:32;;;;;;;10.70;4.65;;;12.30;99.90;;;;;;5011131;28;20482;-74
2022/10/29 02:07:10;;;;;;;10.40;5.03;;;12.30;99.90;;;;;;5032385;28;20062;-74
2022/10/29 02:09:44;;;;;;;8.18;4.32;;;12.40;99.90;;;;;;5034173;28;20280;-74
2022/10/29 02:12:28;;;;;;;13.60;4.68;;;12.30;99.90;;;;;;5033988;28;20729;-74
2022/10/29 02:15:04;;;;;;;16.88;4.85;;;12.30;99.90;;;;;;5023342;28;20038;-74
2022/10/29 02:17:33;;;;;;;18.33;4.65;;;12.20;99.90;;;;;;5023698;28;20486;-74
2022/10/29 02:20:08;;;;;;;17.33;4.20;;;12.20;99.90;;;;;;5016770;28;20512;-73
2022/10/29 02:22:34;;;;;;;10.02;3.53;;;12.10;99.90;;;;;;5016593;28;20045;-74
2022/10/29 02:25:01;;;;;;;12.82;3.58;;;12.00;99.90;;;;;;5025927;28;20048;-75
2022/10/29 02:27:26;;;;;;;40.75;6.50;;;11.90;99.90;;;;;;5014256;28;20090;-74
2022/10/29 02:29:52;;;;;;;10.48;3.47;;;11.90;99.90;;;;;;5014438;28;20055;-74
2022/10/29 02:32:17;;;;;;;73.30;8.55;;;11.80;99.90;;;;;;5013923;28;20479;-74
2022/10/29 02:34:43;;;;;;;24.90;4.75;;;11.80;99.90;;;;;;5031749;28;20049;-74
2022/10/29 02:37:09;;;;;;;18.48;3.28;;;11.80;99.90;;;;;;5033686;28;20052;-74
2022/10/29 02:39:35;;;;;;;4.90;2.97;;;11.80;99.90;;;;;;5033769;28;20037;-74
2022/10/29 02:42:00;;;;;;;5.75;2.72;;;11.90;99.90;;;;;;5033791;28;20053;-75
2022/10/29 02:44:26;;;;;;;4.90;3.00;;;12.00;99.90;;;;;;5033822;28;20033;-75
2022/10/29 02:46:51;;;;;;;6.38;3.05;;;12.00;99.90;;;;;;5033645;28;20046;-75
2022/10/29 02:49:17;;;;;;;7.75;3.35;;;12.00;99.90;;;;;;5033526;28;20049;-75
2022/10/29 02:51:43;;;;;;;18.38;4.90;;;12.00;99.90;;;;;;5016092;28;20125;-74
2022/10/29 02:54:08;;;;;;;4.47;2.63;;;12.10;99.90;;;;;;5013827;28;20112;-75
2022/10/29 02:56:34;;;;;;;8.23;2.70;;;12.10;99.90;;;;;;5013757;28;20077;-74
2022/10/29 02:59:00;;;;;;;5.35;2.50;;;12.00;99.90;;;;;;5013704;28;20096;-75
2022/10/29 03:01:25;;;;;;;7.25;2.60;;;12.10;99.90;;;;;;5013627;28;20042;-75
2022/10/29 03:03:51;;;;;;;15.18;3.75;;;12.10;99.90;;;;;;5013878;28;20048;-74
2022/10/29 03:06:18;;;;;;;9.50;3.38;;;12.10;99.90;;;;;;5013454;28;20042;-74
2022/10/29 03:08:44;;;;;;;6.93;3.63;;;12.10;99.90;;;;;;5013549;28;20037;-74
2022/10/29 03:11:10;;;;;;;29.20;4.55;;;12.00;99.90;;;;;;4995514;28;20061;-74
2022/10/29 03:13:36;;;;;;;19.92;4.78;;;11.90;99.90;;;;;;5013787;28;20065;-75
2022/10/29 03:16:02;;;;;;;10.48;4.28;;;11.80;99.90;;;;;;5032744;28;20103;-74
2022/10/29 03:18:28;;;;;;;10.07;4.93;;;11.70;99.90;;;;;;5033126;28;20112;-74
2022/10/29 03:20:54;;;;;;;9.20;5.15;;;11.70;99.90;;;;;;5033267;28;20133;-74
2022/10/29 03:23:21;;;;;;;12.43;5.50;;;11.70;99.90;;;;;;5015533;28;20052;-74
2022/10/29 03:25:53;;;;;;;43.97;7.25;;;11.80;99.90;;;;;;5016615;28;20052;-74
2022/10/29 03:28:21;;;;;;;12.82;4.65;;;11.80;99.90;;;;;;5013300;28;20073;-75
2022/10/29 03:30:46;;;;;;;13.73;5.20;;;11.60;99.90;;;;;;4995687;28;20053;-74
2022/10/29 03:33:12;;;;;;;11.90;4.90;;;11.60;99.90;;;;;;5013191;28;20041;-74
2022/10/29 03:35:38;;;;;;;10.75;5.25;;;11.50;99.90;;;;;;5012936;28;20061;-74
2022/10/29 03:38:04;;;;;;;13.60;5.82;;;11.50;99.90;;;;;;5012923;28;20080;-74
2022/10/29 03:40:30;;;;;;;12.65;6.03;;;11.60;99.90;;;;;;5013339;28;20056;-74
2022/10/29 03:42:55;;;;;;;14.00;6.10;;;11.70;99.90;;;;;;5012622;28;20041;-74
2022/10/29 03:45:21;;;;;;;9.90;5.38;;;11.80;99.90;;;;;;5013285;28;20103;-74
2022/10/29 03:47:47;;;;;;;13.05;6.55;;;11.80;99.90;;;;;;5012939;28;20042;-74
2022/10/29 03:50:12;;;;;;;13.25;5.30;;;11.80;99.90;;;;;;5012858;28;20181;-75
2022/10/29 03:52:38;;;;;;;8.60;5.30;;;11.80;99.90;;;;;;4995252;28;20049;-75
2022/10/29 03:55:04;;;;;;;8.70;4.72;;;11.80;99.90;;;;;;5012549;28;20037;-74
2022/10/29 03:57:30;;;;;;;12.07;5.78;;;11.80;99.90;;;;;;5012602;28;20046;-75
2022/10/29 03:59:56;;;;;;;32.80;7.10;;;11.80;99.90;;;;;;5012588;28;20042;-74
2022/10/29 04:02:22;;;;;;;14.82;5.63;;;11.80;99.90;;;;;;5012356;28;20046;-74
2022/10/29 04:04:48;;;;;;;10.77;5.63;;;11.80;99.90;;;;;;5012514;28;20470;-74
2022/10/29 04:07:14;;;;;;;12.38;6.43;;;11.90;99.90;;;;;;5011960;28;20125;-73
2022/10/29 04:09:40;;;;;;;10.93;5.70;;;11.90;99.90;;;;;;5012425;28;20049;-74
2022/10/29 04:12:06;;;;;;;11.20;5.60;;;12.00;99.90;;;;;;5012064;28;20071;-74
2022/10/29 04:14:31;;;;;;;11.23;5.55;;;12.00;99.90;;;;;;5020343;28;20329;-74
2022/10/29 04:16:57;;;;;;;12.50;6.03;;;12.10;99.90;;;;;;5032233;28;20045;-74
2022/10/29 04:19:23;;;;;;;13.13;5.93;;;12.10;99.90;;;;;;5031881;28;20575;-74
2022/10/29 04:21:49;;;;;;;13.40;6.18;;;12.00;99.90;;;;;;5014248;28;20049;-74
2022/10/29 04:24:15;;;;;;;12.75;6.07;;;12.20;99.90;;;;;;5027679;28;20037;-74
2022/10/29 04:26:44;;;;;;;11.85;6.00;;;12.20;99.90;;;;;;5012247;28;20049;-75
2022/10/29 04:29:10;;;;;;;10.32;5.60;;;12.30;99.90;;;;;;5011342;28;20429;-74
2022/10/29 04:31:36;;;;;;;7.18;5.03;;;12.30;99.90;;;;;;5011701;28;20120;-75
2022/10/29 04:34:02;;;;;;;6.45;4.45;;;12.40;99.90;;;;;;5012360;28;20140;-75
2022/10/29 04:36:28;;;;;;;6.25;3.50;;;12.40;99.90;;;;;;5011876;28;20132;-73
2022/10/29 04:38:54;;;;;;;5.88;4.28;;;12.40;99.90;;;;;;5012086;28;20049;-74
2022/10/29 04:41:19;;;;;;;7.28;3.28;;;12.30;99.90;;;;;;5013016;28;20050;-74
2022/10/29 04:43:45;;;;;;;5.22;3.00;;;12.30;99.90;;;;;;5020864;28;20319;-74
2022/10/29 04:46:11;;;;;;;7.47;4.05;;;12.30;99.90;;;;;;5025111;28;20073;-74
2022/10/29 04:48:37;;;;;;;10.55;5.30;;;12.30;99.90;;;;;;5031500;28;20038;-74
2022/10/29 04:51:03;;;;;;;8.70;5.18;;;12.30;99.90;;;;;;5013180;28;20045;-74
2022/10/29 04:53:29;;;;;;;10.68;5.45;;;12.40;99.90;;;;;;5011889;28;20426;-73
2022/10/29 04:56:00;;;;;;;12.93;5.75;;;12.50;99.90;;;;;;5011869;28;20129;-74
2022/10/29 04:58:26;;;;;;;9.90;5.10;;;12.60;99.90;;;;;;5020503;28;20096;-74
2022/10/29 05:00:52;;;;;;;8.20;5.03;;;12.60;99.90;;;;;;5031397;28;20547;-75
2022/10/29 05:03:17;;;;;;;7.80;4.72;;;12.60;99.90;;;;;;5031224;28;20076;-74
2022/10/29 05:05:43;;;;;;;10.15;4.88;;;12.70;99.90;;;;;;5031517;28;20076;-75
2022/10/29 05:08:10;;;;;;;9.80;4.70;;;12.70;99.90;;;;;;5004208;28;20046;-74
2022/10/29 05:10:38;;;;;;;9.10;4.53;;;12.80;99.90;;;;;;5019589;28;20156;-75
2022/10/29 05:13:10;;;;;;;8.38;4.88;;;12.80;99.90;;;;;;5025073;28;20042;-75
2022/10/29 05:15:36;;;;;;;10.32;4.60;;;12.80;99.90;;;;;;5014447;28;20135;-74
2022/10/29 05:18:02;;;;;;;10.57;4.75;;;12.80;99.90;;;;;;5030372;28;20088;-74
2022/10/29 05:20:28;;;;;;;7.90;4.75;;;12.90;99.90;;;;;;5031206;28;20053;-74
2022/10/29 05:23:05;;;;;;;6.22;3.58;;;12.90;99.90;;;;;;5031137;28;20057;-75
2022/10/29 05:25:33;;;;;;;7.72;3.90;;;12.90;99.90;;;;;;5020756;28;20160;-74
2022/10/29 05:28:02;;;;;;;6.60;3.92;;;12.90;99.90;;;;;;5011523;28;20054;-74
2022/10/29 05:30:28;;;;;;;7.20;3.45;;;12.80;99.90;;;;;;4994056;28;20195;-74
2022/10/29 05:32:53;;;;;;;6.40;3.90;;;12.70;99.90;;;;;;5011480;28;20422;-75
2022/10/29 05:35:19;;;;;;;6.95;3.92;;;12.70;99.90;;;;;;5011418;28;20060;-74
2022/10/29 05:37:50;;;;;;;5.75;3.53;;;12.60;99.90;;;;;;5004402;28;20449;-74
2022/10/29 05:40:16;;;;;;;7.72;3.40;;;12.60;99.90;;;;;;5013017;28;20094;-74
2022/10/29 05:42:42;;;;;;;4.88;3.53;;;12.60;99.90;;;;;;5026257;28;20076;-75
2022/10/29 05:45:08;;;;;;;7.50;3.40;;;12.60;99.90;;;;;;5017456;28;20374;-74
2022/10/29 05:47:34;;;;;;;6.22;3.88;;;12.50;99.90;;;;;;5017094;28;20048;-75
2022/10/29 05:49:59;;;;;;;7.95;4.38;;;12.50;99.90;;;;;;5034760;28;20053;-75
2022/10/29 05:52:25;;;;;;;6.90;3.28;;;12.40;99.90;;;;;;5034864;28;20059;-74
2022/10/29 05:54:51;;;;;;;6.50;3.40;;;12.40;99.90;;;;;;5017280;28;20052;-74
2022/10/29 05:57:16;;;;;;;8.50;4.00;;;12.30;99.90;;;;;;5034760;28;20049;-74
2022/10/29 05:59:42;;;;;;;7.53;4.10;;;12.30;99.90;;;;;;5034621;28;20079;-74
2022/10/29 06:02:08;;;;;;;8.15;3.75;;;12.30;99.90;;;;;;5034379;28;20055;-75
2022/10/29 06:04:34;;;;;;;6.90;3.83;;;12.30;99.90;;;;;;5034568;28;20038;-74
2022/10/29 06:07:00;;;;;;;6.85;3.95;;;12.30;99.90;;;;;;5034419;28;20041;-74
2022/10/29 06:09:26;;;;;;;5.60;3.72;;;12.30;99.90;;;;;;5016845;28;20052;-74
2022/10/29 06:11:54;;;;;;;5.95;3.80;;;12.20;99.90;;;;;;5033618;28;20045;-74
2022/10/29 06:14:19;;;;;;;5.18;3.70;;;12.20;99.90;;;;;;5006834;28;20038;-74
2022/10/29 06:16:45;;;;;;;9.27;3.83;;;12.10;99.90;;;;;;5015906;28;20102;-74
2022/10/29 06:19:11;;;;;;;6.43;3.70;;;12.10;99.90;;;;;;5034037;28;20056;-74
2022/10/29 06:21:36;;;;;;;6.88;3.92;;;12.10;99.90;;;;;;5034054;28;20049;-76
2022/10/29 06:24:02;;;;;;;6.97;3.92;;;12.10;99.90;;;;;;5016561;28;20046;-74
2022/10/29 06:26:28;;;;;;;9.70;5.55;;;12.10;99.90;;;;;;5034131;28;20049;-74
2022/10/29 06:28:53;;;;;;;9.60;4.43;;;12.10;99.90;;;;;;5016739;28;20049;-74
2022/10/29 06:31:19;;;;;;;6.60;4.22;;;12.10;99.90;;;;;;5034188;28;20152;-75
2022/10/29 06:33:45;;;;;;;8.45;4.60;;;12.10;99.90;;;;;;5034118;28;20050;-74
2022/10/29 06:36:10;;;;;;;8.25;4.88;;;12.20;99.90;;;;;;5015645;28;20042;-75
2022/10/29 06:38:36;;;;;;;7.35;4.75;;;12.20;99.90;;;;;;5032922;28;20064;-75
2022/10/29 06:41:02;;;;;;;7.63;4.78;;;12.20;99.90;;;;;;5033320;28;20045;-75
2022/10/29 06:43:27;;;;;;;7.57;4.47;;;12.30;99.90;;;;;;5033795;28;20034;-75
2022/10/29 06:45:53;;;;;;;6.22;4.07;;;12.20;99.90;;;;;;5033598;28;20060;-75
2022/10/29 06:48:19;;;;;;;6.78;4.55;;;12.30;99.90;;;;;;5016233;28;20056;-75
2022/10/29 06:50:45;;;;;;;7.32;4.93;;;12.20;99.90;;;;;;5032908;28;20429;-75
2022/10/29 06:53:12;;;;;;;8.30;5.20;;;12.20;99.90;;;;;;5033294;28;20058;-74
2022/10/29 06:55:38;;;;;;;9.43;5.78;;;12.20;99.90;;;;;;5015812;28;20124;-75
2022/10/29 06:58:13;;;;;;;8.20;5.15;;;12.20;99.90;;;;;;5022053;28;20128;-65
2022/10/29 07:00:40;;;;;;;8.05;5.47;;;12.20;99.90;;;;;;5014193;28;20054;-65
2022/10/29 07:03:06;;;;;;;11.30;5.63;;;12.20;99.90;;;;;;5013686;28;20486;-65
2022/10/29 07:05:32;;;;;;;11.38;5.20;;;12.30;99.90;;;;;;5013764;28;20386;-65
2022/10/29 07:07:59;;;;;;;9.00;5.72;;;12.30;99.90;;;;;;4996259;28;20133;-65
2022/10/29 07:10:27;;;;;;;10.27;5.57;;;12.30;99.90;;;;;;5013653;28;20049;-65
2022/10/29 07:12:53;;;;;;;10.13;5.43;;;12.30;99.90;;;;;;5012992;28;20030;-66
2022/10/29 07:15:19;;;;;;;8.18;5.45;;;12.30;99.90;;;;;;5013629;28;20045;-65
2022/10/29 07:18:05;;;;;;;9.98;5.80;;;12.30;99.90;;;;;;5032265;28;20042;-65
2022/10/29 07:20:34;;;;;;;8.68;5.53;;;12.30;99.90;;;;;;5033227;28;20046;-66
2022/10/29 07:23:00;;;;;;;7.43;5.07;;;12.30;99.90;;;;;;5032894;28;20041;-65
2022/10/29 07:25:26;;;;;;;9.32;5.75;;;12.30;99.90;;;;;;5033103;28;20128;-65
2022/10/29 07:27:52;;;;;;;7.82;5.43;;;12.30;99.90;;;;;;5033079;28;20087;-65
2022/10/29 07:30:19;;;;;;;8.63;6.00;;;12.40;99.90;;;;;;5032989;28;20041;-65
2022/10/29 07:32:45;;;;;;;8.00;5.53;;;12.40;99.90;;;;;;5032905;28;20042;-65
2022/10/29 07:35:10;;;;;;;6.32;4.90;;;12.40;99.90;;;;;;5032852;28;20103;-65
2022/10/29 07:37:36;;;;;;;8.23;5.57;;;12.50;99.90;;;;;;5032549;28;20124;-65
2022/10/29 07:40:03;;;;;;;7.13;5.43;;;12.50;99.90;;;;;;5032275;28;20532;-65
2022/10/29 07:42:28;;;;;;;7.75;5.50;;;12.50;99.90;;;;;;5032183;28;20041;-65
2022/10/29 07:44:54;;;;;;;8.50;5.82;;;12.50;99.90;;;;;;5032412;28;20065;-66
2022/10/29 07:47:20;;;;;;;7.68;5.30;;;12.10;99.90;;;;;;5014930;28;20137;-65
2022/10/29 07:49:45;;;;;;;6.97;5.38;;;12.60;99.90;;;;;;5014638;28;20052;-65
2022/10/29 07:52:11;;;;;;;7.10;5.32;;;12.60;99.90;;;;;;5032305;28;20050;-65
2022/10/29 07:54:37;;;;;;;8.23;5.80;;;12.60;99.90;;;;;;5032268;28;20111;-66
2022/10/29 07:57:03;;;;;;;7.80;5.82;;;12.60;99.90;;;;;;5020844;28;20578;-67
2022/10/29 07:59:29;;;;;;;8.77;5.72;;;12.60;99.90;;;;;;5010582;28;20056;-66
2022/10/29 08:01:55;;;;;;;9.20;5.70;;;12.70;99.90;;;;;;5011931;28;20132;-66
2022/10/29 08:04:20;;;;;;;8.93;6.00;;;12.70;99.90;;;;;;5011329;28;20085;-67
2022/10/29 08:06:46;;;;;;;8.93;5.57;;;12.70;99.90;;;;;;5011785;28;20096;-66
2022/10/29 08:09:12;;;;;;;9.18;5.85;;;12.80;99.90;;;;;;5011130;28;20057;-66
2022/10/29 08:11:38;;;;;;;8.70;5.80;;;12.80;99.90;;;;;;5010292;28;20052;-67
2022/10/29 08:14:04;;;;;;;10.95;6.32;;;12.90;99.90;;;;;;5008881;28;20117;-67
2022/10/29 08:16:30;;;;;;;7.78;6.13;;;12.90;99.90;;;;;;5011740;28;20394;-68
2022/10/29 08:18:56;;;;;;;8.75;5.95;;;13.10;99.90;;;;;;5011069;28;20060;-68
2022/10/29 08:21:22;;;;;;;11.02;7.60;;;13.10;99.90;;;;;;5012017;28;20119;-68
2022/10/29 08:23:48;;;;;;;11.18;7.00;;;13.10;99.90;;;;;;5011865;28;20041;-68
2022/10/29 08:26:13;;;;;;;13.20;7.00;;;13.30;99.90;;;;;;4993230;28;20472;-68
2022/10/29 08:28:41;;;;;;;13.18;7.15;;;13.30;99.90;;;;;;5011319;28;20050;-69
2022/10/29 08:31:07;;;;;;;12.65;7.50;;;13.40;99.90;;;;;;5011605;28;20402;-69
2022/10/29 08:33:33;;;;;;;13.18;7.32;;;13.50;99.90;;;;;;5011691;28;20046;-68
2022/10/29 08:35:59;;;;;;;13.02;7.90;;;13.50;99.90;;;;;;5011772;28;20133;-68
2022/10/29 08:38:24;;;;;;;11.23;7.68;;;13.60;99.90;;;;;;5011099;28;20144;-68
2022/10/29 08:40:59;;;;;;;12.27;8.10;;;13.70;99.90;;;;;;5011464;28;20061;-68
2022/10/29 08:43:41;;;;;;;13.02;7.63;;;13.80;99.90;;;;;;5011540;28;20049;-68
2022/10/29 08:46:37;;;;;;;12.25;7.90;;;13.90;99.90;;;;;;5011571;28;20054;-68
2022/10/29 08:49:09;;;;;;;15.57;7.55;;;13.90;99.90;;;;;;5011075;28;20066;-66
2022/10/29 08:51:43;;;;;;;12.25;7.20;;;14.00;99.90;;;;;;5010920;28;20488;-66
2022/10/29 08:54:12;;;;;;;10.35;7.15;;;14.10;99.90;;;;;;5011308;28;20514;-66
2022/10/29 08:56:43;;;;;;;11.13;7.75;;;14.20;99.90;;;;;;5011065;28;20049;-65
2022/10/29 08:59:18;;;;;;;11.85;7.25;;;14.30;99.90;;;;;;5010990;28;20058;-66
2022/10/29 09:01:44;;;;;;;14.57;8.13;;;14.40;99.90;;;;;;5011393;28;20406;-66
2022/10/29 09:04:25;;;;;;;15.90;7.65;;;14.60;99.90;;;;;;5010925;28;20050;-67
2022/10/29 09:07:09;;;;;;;13.25;7.65;;;14.80;99.90;;;;;;5010909;28;20054;-67
2022/10/29 09:09:38;;;;;;;13.90;7.60;;;15.00;99.90;;;;;;5010929;28;20053;-67
2022/10/29 09:12:19;;;;;;;11.25;6.72;;;15.20;99.90;;;;;;5010104;28;20095;-67
2022/10/29 09:15:24;;;;;;;14.30;7.03;;;15.20;99.90;;;;;;4992814;28;20405;-66
2022/10/29 09:18:22;;;;;;;12.95;7.22;;;15.40;99.90;;;;;;5019935;28;20457;-66
2022/10/29 09:21:21;;;;;;;12.50;6.88;;;15.50;99.90;;;;;;4992037;28;20410;-67
2022/10/29 09:23:56;;;;;;;11.18;7.57;;;15.50;99.90;;;;;;5003708;28;20057;-66
2022/10/29 09:26:37;;;;;;;10.30;7.07;;;15.60;99.90;;;;;;5009401;28;20491;-67
2022/10/29 09:29:25;;;;;;;10.52;7.07;;;15.70;99.90;;;;;;4989590;28;20487;-67
2022/10/29 09:32:02;;;;;;;10.35;7.45;;;15.80;99.90;;;;;;4991458;28;20080;-66
2022/10/29 09:34:31;;;;;;;11.18;6.85;;;15.90;99.90;;;;;;5002505;28;20517;-66
2022/10/29 09:36:58;;;;;;;12.02;6.95;;;15.90;99.90;;;;;;5010158;28;20058;-66
2022/10/29 09:39:36;;;;;;;14.70;7.25;;;16.00;99.90;;;;;;5010258;28;20423;-65
2022/10/29 09:42:10;;;;;;;10.82;6.50;;;16.10;99.90;;;;;;5009961;28;20057;-65
2022/10/29 09:44:45;;;;;;;12.02;6.55;;;16.10;99.90;;;;;;5009725;28;20144;-66
2022/10/29 09:47:26;;;;;;;9.30;5.82;;;16.20;99.90;;;;;;5010174;28;20049;-66
2022/10/29 09:50:13;;;;;;;9.73;6.28;;;16.20;99.90;;;;;;5010904;28;20053;-66
2022/10/29 09:52:42;;;;;;;9.35;5.82;;;16.40;99.90;;;;;;5009789;28;20096;-64
2022/10/29 09:55:25;;;;;;;12.57;5.88;;;16.50;99.90;;;;;;5010676;28;20041;-65
2022/10/29 09:57:53;;;;;;;11.35;5.78;;;16.50;99.90;;;;;;4993094;28;20053;-64
2022/10/29 10:00:23;;;;;;;9.88;5.40;;;16.60;99.90;;;;;;5009547;28;20048;-65
2022/10/29 10:03:18;;;;;;;13.32;5.25;;;16.60;99.90;;;;;;5010220;28;20042;-66
2022/10/29 10:06:08;;;;;;;8.52;5.13;;;16.70;99.90;;;;;;5003821;28;20068;-66
2022/10/29 10:08:54;;;;;;;7.45;4.47;;;16.80;99.90;;;;;;5010039;28;20053;-67
2022/10/29 10:11:20;;;;;;;8.32;4.70;;;16.90;99.90;;;;;;5008417;28;20608;-66
2022/10/29 10:13:58;;;;;;;10.88;5.15;;;17.00;99.90;;;;;;5009001;28;20085;-66
2022/10/29 10:16:27;;;;;;;8.90;4.53;;;17.10;99.90;;;;;;5017730;28;20356;-66
2022/10/29 10:18:53;;;;;;;16.33;6.25;;;17.10;99.90;;;;;;5029997;28;20061;-66
2022/10/29 10:21:27;;;;;;;9.90;5.45;;;17.20;99.90;;;;;;5030198;28;20406;-66
2022/10/29 10:23:56;;;;;;;9.48;5.40;;;17.30;99.90;;;;;;5029820;28;20064;-66
2022/10/29 10:26:42;;;;;;;7.70;5.95;;;17.40;99.90;;;;;;5012543;28;20057;-66
2022/10/29 10:29:16;;;;;;;9.57;5.70;;;17.50;99.90;;;;;;5033495;28;20049;-66
2022/10/29 10:31:44;;;;;;;11.18;5.47;;;17.40;99.90;;;;;;5033427;28;20091;-66
2022/10/29 10:34:22;;;;;;;8.45;5.25;;;17.50;99.90;;;;;;5033696;28;20049;-66
2022/10/29 10:37:15;;;;;;;8.27;5.13;;;17.50;99.90;;;;;;5032625;28;20124;-66
2022/10/29 10:40:05;;;;;;;7.18;4.60;;;17.60;99.90;;;;;;5017955;28;20092;-66
2022/10/29 10:42:41;;;;;;;8.85;5.20;;;17.80;99.90;;;;;;5011374;28;20131;-66
2022/10/29 10:45:15;;;;;;;8.63;5.13;;;18.00;99.90;;;;;;5013231;28;20049;-66
2022/10/29 10:47:49;;;;;;;11.05;6.15;;;18.10;99.90;;;;;;5012562;28;20419;-66
2022/10/29 10:50:25;;;;;;;9.00;5.13;;;18.10;99.90;;;;;;4992038;28;20161;-66
2022/10/29 10:52:53;;;;;;;12.02;5.90;;;18.10;99.90;;;;;;5012950;28;20049;-66
2022/10/29 10:55:27;;;;;;;8.05;5.32;;;18.00;99.90;;;;;;4996137;28;20057;-66
2022/10/29 10:58:19;;;;;;;8.65;5.53;;;18.00;99.90;;;;;;5012628;28;20512;-66
2022/10/29 11:00:52;;;;;;;10.73;5.65;;;18.00;99.90;;;;;;5013424;28;20130;-66
2022/10/29 11:03:26;;;;;;;9.98;5.07;;;18.00;99.90;;;;;;5013177;28;20127;-66
2022/10/29 11:06:10;;;;;;;10.77;5.88;;;18.10;99.90;;;;;;5012826;28;20121;-66
2022/10/29 11:08:59;;;;;;;9.20;5.18;;;18.10;99.90;;;;;;5013014;28;20491;-67
2022/10/29 11:11:37;;;;;;;13.18;6.07;;;18.00;99.90;;;;;;5012601;28;20045;-66
2022/10/29 11:14:11;;;;;;;12.90;5.95;;;18.10;99.90;;;;;;5016533;28;20513;-66
2022/10/29 11:16:42;;;;;;;12.75;6.18;;;18.10;99.90;;;;;;5023416;28;20045;-67
2022/10/29 11:19:29;;;;;;;10.55;5.82;;;18.00;99.90;;;;;;4995662;28;20057;-67
2022/10/29 11:22:12;;;;;;;9.57;6.10;;;18.00;99.90;;;;;;5012387;28;20180;-67
2022/10/29 11:24:42;;;;;;;18.52;6.28;;;18.00;99.90;;;;;;5012877;28;20050;-67
2022/10/29 11:27:42;;;;;;;12.27;6.38;;;18.00;99.90;;;;;;5012701;28;20046;-67
2022/10/29 11:30:12;;;;;;;11.05;6.22;;;18.00;99.90;;;;;;4995311;28;20096;-67
2022/10/29 11:32:58;;;;;;;12.25;7.10;;;18.00;99.90;;;;;;5012567;28;20470;-67
2022/10/29 11:35:57;;;;;;;16.67;7.60;;;18.00;99.90;;;;;;5012721;28;20104;-67
2022/10/29 11:38:33;;;;;;;15.13;6.93;;;18.00;99.90;;;;;;5012019;28;20065;-67
2022/10/29 11:41:05;;;;;;;11.05;7.00;;;18.00;99.90;;;;;;5012574;28;20458;-67
2022/10/29 11:43:32;;;;;;;14.43;7.38;;;18.00;99.90;;;;;;5012300;28;20103;-68
2022/10/29 11:46:38;;;;;;;12.88;7.75;;;18.10;99.90;;;;;;5012706;28;20053;-67
2022/10/29 11:49:06;;;;;;;13.10;7.95;;;18.10;99.90;;;;;;5012671;28;20306;-67
2022/10/29 11:52:01;;;;;;;14.77;8.52;;;18.10;99.90;;;;;;5012056;28;20058;-67
2022/10/29 11:54:55;;;;;;;12.90;7.68;;;18.10;99.90;;;;;;5012553;28;20109;-67
2022/10/29 11:57:34;;;;;;;13.93;7.78;;;18.20;99.90;;;;;;5012198;28;20057;-67
2022/10/29 12:00:18;;;;;;;12.25;7.50;;;18.20;99.90;;;;;;5012165;28;20109;-67
2022/10/29 12:02:59;;;;;;;14.82;7.70;;;18.30;99.90;;;;;;5012173;28;20085;-67
2022/10/29 12:05:44;;;;;;;12.90;7.30;;;18.30;99.90;;;;;;5012040;28;20053;-67
2022/10/29 12:08:10;;;;;;;15.23;6.93;;;18.40;99.90;;;;;;5012288;28;20054;-68
2022/10/29 12:10:50;;;;;;;13.88;7.03;;;18.40;99.90;;;;;;5012179;28;20494;-68
2022/10/29 12:13:35;;;;;;;12.85;7.35;;;18.50;99.90;;;;;;5011128;28;20041;-69
2022/10/29 12:16:20;;;;;;;14.00;7.28;;;18.40;99.90;;;;;;5027271;28;20410;-67
2022/10/29 12:19:09;;;;;;;10.43;7.07;;;18.40;99.90;;;;;;4977968;28;20060;-68
2022/10/29 12:21:46;;;;;;;12.88;7.22;;;18.50;99.90;;;;;;5012076;28;20538;-68
2022/10/29 12:24:21;;;;;;;12.73;7.25;;;18.60;99.90;;;;;;5011879;28;20045;-68
2022/10/29 12:26:54;;;;;;;13.48;6.95;;;18.60;99.90;;;;;;5011471;28;20060;-67
2022/10/29 12:29:28;;;;;;;13.68;8.05;;;18.60;99.90;;;;;;5011520;28;20053;-68
2022/10/29 12:32:09;;;;;;;9.57;6.82;;;18.70;99.90;;;;;;5011613;28;20073;-67
2022/10/29 12:34:54;;;;;;;14.23;7.10;;;18.70;99.90;;;;;;5011268;28;20092;-67
2022/10/29 12:37:56;;;;;;;14.45;7.47;;;18.70;99.90;;;;;;5011744;28;20058;-67
2022/10/29 12:40:27;;;;;;;12.23;7.22;;;18.70;99.90;;;;;;5011540;28;20054;-67
2022/10/29 12:42:55;;;;;;;14.73;7.13;;;18.80;99.90;;;;;;4992998;28;20042;-66
2022/10/29 12:46:08;;;;;;;12.85;7.38;;;18.80;99.90;;;;;;5010659;28;20081;-66
2022/10/29 12:48:44;;;;;;;11.90;7.05;;;18.80;99.90;;;;;;4988412;28;20065;-66
2022/10/29 12:51:21;;;;;;;10.70;6.97;;;18.80;99.90;;;;;;4988343;28;20054;-66
2022/10/29 12:53:58;;;;;;;;;;;18.80;99.90;;;;;;5004426;28;20104;-66
2022/10/29 12:56:26;;;;;;;13.05;6.78;;;18.70;99.90;;;;;;5011135;28;19925;-66
2022/10/29 12:58:56;;;;;;;13.88;7.07;;;18.70;99.90;;;;;;4993628;28;20064;-66
2022/10/29 13:01:24;;;;;;;12.82;7.38;;;18.70;99.90;;;;;;5010362;28;20046;-66
2022/10/29 13:04:01;;;;;;;13.20;7.10;;;18.70;99.90;;;;;;5010981;28;20046;-66
2022/10/29 13:06:42;;;;;;;8.82;6.13;;;18.70;99.90;;;;;;5010873;28;20487;-67